Time;durP1;ratioP1;P1;durP2;ratioP2;P2;SDS_P1;SDS_P2;PMS_P1;PMS_P2;Temp;Humidity;BMP_temperature;BMP_pressure;BME280_temperature;BME280_humidity;BME280_pressure;Samples;Min_cycle;Max_cycle;Signal;HPM_P1;HPM_P2
2021/05/23 04:51:04;;;;;;;2.50;0.90;;;10.10;99.90;;;;;;5667794;23;20047;-68
2021/05/23 04:53:30;;;;;;;4.03;0.88;;;10.20;99.90;;;;;;4949604;29;20127;-68
2021/05/23 04:55:57;;;;;;;2.97;1.00;;;10.30;99.90;;;;;;4950879;29;20059;-68
2021/05/23 04:58:23;;;;;;;;;;;10.40;99.90;;;;;;4950631;29;20062;-68
2021/05/23 05:00:50;;;;;;;6.20;1.30;;;10.40;99.90;;;;;;4949845;28;19923;-68
2021/05/23 05:03:17;;;;;;;;;;;10.40;99.90;;;;;;4950091;29;20064;-68
2021/05/23 05:05:43;;;;;;;2.40;0.95;;;10.40;99.90;;;;;;4950000;29;20151;-68
2021/05/23 05:08:11;;;;;;;2.75;1.13;;;10.40;99.90;;;;;;4950309;29;20043;-68
2021/05/23 05:10:37;;;;;;;2.58;0.82;;;10.40;99.90;;;;;;4951625;28;20063;-68
2021/05/23 05:13:04;;;;;;;;;;;10.40;99.90;;;;;;4950280;29;20403;-68
2021/05/23 05:15:30;;;;;;;5.40;1.10;;;10.30;99.90;;;;;;4949953;29;19964;-69
2021/05/23 05:17:57;;;;;;;2.70;0.90;;;10.30;99.90;;;;;;4951038;29;20047;-69
2021/05/23 05:20:26;;;;;;;1.92;0.63;;;10.50;99.90;;;;;;4949511;28;20144;-69
2021/05/23 05:22:53;;;;;;;4.47;1.10;;;10.50;99.90;;;;;;4951114;28;20118;-69
2021/05/23 05:25:22;;;;;;;5.82;0.90;;;10.50;99.90;;;;;;4965826;28;20055;-68
2021/05/23 05:27:48;;;;;;;4.13;1.42;;;10.50;99.90;;;;;;4951410;28;20566;-68
2021/05/23 05:30:16;;;;;;;2.92;0.90;;;10.40;99.90;;;;;;4950263;28;20509;-69
2021/05/23 05:32:43;;;;;;;2.42;1.00;;;10.40;99.90;;;;;;4951297;28;20039;-69
2021/05/23 05:35:10;;;;;;;4.78;1.10;;;10.50;99.90;;;;;;4951120;29;20043;-69
2021/05/23 05:37:37;;;;;;;4.05;1.20;;;10.70;99.90;;;;;;4950614;29;20043;-69
2021/05/23 05:40:05;;;;;;;1.95;0.90;;;11.50;99.90;;;;;;4951364;28;20126;-69
2021/05/23 05:42:33;;;;;;;5.25;1.42;;;11.70;99.90;;;;;;4951435;28;20045;-69
2021/05/23 05:45:00;;;;;;;2.45;0.82;;;11.60;99.90;;;;;;4949642;29;20051;-68
2021/05/23 05:47:26;;;;;;;3.58;1.08;;;11.50;99.90;;;;;;4951014;28;20043;-69
2021/05/23 05:49:53;;;;;;;2.00;0.82;;;11.30;99.90;;;;;;4949657;29;20499;-68
2021/05/23 05:52:20;;;;;;;2.42;1.00;;;11.10;99.90;;;;;;4949218;29;20039;-69
2021/05/23 05:54:47;;;;;;;2.58;1.45;;;11.10;99.90;;;;;;4950950;28;20058;-68
2021/05/23 05:57:13;;;;;;;1.55;0.98;;;12.00;99.90;;;;;;4950792;29;20547;-69
2021/05/23 05:59:41;;;;;;;3.13;1.10;;;12.50;99.90;;;;;;4951319;28;20071;-69
2021/05/23 06:02:08;;;;;;;4.38;1.05;;;13.30;99.90;;;;;;4949046;29;20514;-69
2021/05/23 06:04:34;;;;;;;3.88;0.95;;;14.20;99.90;;;;;;4950898;28;20118;-70
2021/05/23 06:07:01;;;;;;;2.38;0.70;;;14.50;99.90;;;;;;4950771;29;20073;-70
2021/05/23 06:09:28;;;;;;;3.95;0.88;;;14.50;99.90;;;;;;4951032;29;20047;-69
2021/05/23 06:11:56;;;;;;;4.13;0.90;;;14.10;99.90;;;;;;4950970;29;20425;-68
2021/05/23 06:14:23;;;;;;;1.88;0.70;;;14.10;99.90;;;;;;4952408;28;20138;-69
2021/05/23 06:16:50;;;;;;;;;;;14.50;99.90;;;;;;4955465;28;20072;-69
2021/05/23 06:19:17;;;;;;;1.70;0.60;;;14.30;99.90;;;;;;4952825;29;19926;-69
2021/05/23 06:21:43;;;;;;;;;;;14.10;99.90;;;;;;4954862;28;20043;-69
2021/05/23 06:24:10;;;;;;;2.13;0.82;;;13.70;99.90;;;;;;4953000;29;19929;-69
2021/05/23 06:26:38;;;;;;;2.75;0.93;;;13.10;99.90;;;;;;4954609;29;20127;-69
2021/05/23 06:29:04;;;;;;;2.15;0.60;;;13.40;99.90;;;;;;4952976;29;20063;-69
2021/05/23 06:31:32;;;;;;;1.35;0.60;;;14.10;99.90;;;;;;4952821;29;20170;-70
2021/05/23 06:33:59;;;;;;;1.48;0.63;;;14.80;99.90;;;;;;4953683;28;20049;-69
2021/05/23 06:36:26;;;;;;;4.00;0.70;;;15.40;99.90;;;;;;4953927;29;20044;-69
2021/05/23 06:38:53;;;;;;;2.50;0.80;;;15.20;99.90;;;;;;4952317;29;20062;-69
2021/05/23 06:41:20;;;;;;;1.98;0.70;;;15.70;99.90;;;;;;4953783;28;20039;-69
2021/05/23 06:43:46;;;;;;;1.92;0.77;;;15.70;99.90;;;;;;4938580;28;20044;-70
2021/05/23 06:46:13;;;;;;;1.02;0.80;;;15.90;99.90;;;;;;4934147;29;20050;-70
2021/05/23 06:48:40;;;;;;;1.42;0.63;;;15.80;99.90;;;;;;4934173;29;20058;-69
2021/05/23 06:51:07;;;;;;;1.25;0.70;;;15.50;99.90;;;;;;4934370;29;20554;-70
2021/05/23 06:53:34;;;;;;;4.35;0.65;;;15.30;99.90;;;;;;4933227;29;20086;-70
2021/05/23 06:56:00;;;;;;;2.22;0.60;;;14.30;99.90;;;;;;4934557;29;20052;-69
2021/05/23 06:58:27;;;;;;;3.22;1.00;;;14.80;99.90;;;;;;4933498;29;20055;-70
2021/05/23 07:00:54;;;;;;;2.00;0.80;;;15.10;99.90;;;;;;4933994;29;20052;-70
2021/05/23 07:03:21;;;;;;;2.17;0.40;;;15.30;99.90;;;;;;4934675;29;20054;-70
2021/05/23 07:05:47;;;;;;;1.48;0.60;;;16.30;99.90;;;;;;4933893;29;20040;-69
2021/05/23 07:08:17;;;;;;;4.15;0.50;;;16.10;99.90;;;;;;4934289;29;20056;-70
2021/05/23 07:10:44;;;;;;;2.88;0.47;;;15.90;99.90;;;;;;4933894;29;20040;-69
2021/05/23 07:13:10;;;;;;;1.05;0.65;;;15.50;99.90;;;;;;4934306;29;20058;-69
2021/05/23 07:15:37;;;;;;;4.03;0.65;;;15.10;99.90;;;;;;4934132;29;20079;-69
2021/05/23 07:18:04;;;;;;;1.05;0.47;;;15.00;99.90;;;;;;4934435;29;20453;-70
2021/05/23 07:20:31;;;;;;;3.35;0.90;;;15.80;99.90;;;;;;4932031;29;20210;-70
2021/05/23 07:22:58;;;;;;;;;;;15.80;99.90;;;;;;4933058;29;20150;-70
2021/05/23 07:25:25;;;;;;;1.58;0.82;;;15.20;99.90;;;;;;4932287;29;19926;-69
2021/05/23 07:27:52;;;;;;;1.15;0.50;;;14.40;99.90;;;;;;4941825;29;20051;-68
2021/05/23 07:30:19;;;;;;;2.10;0.57;;;14.60;99.90;;;;;;4945299;29;20054;-68
2021/05/23 07:32:46;;;;;;;2.25;0.70;;;15.10;99.90;;;;;;4952975;28;20047;-68
2021/05/23 07:35:13;;;;;;;2.53;0.70;;;16.70;99.90;;;;;;4934643;28;20530;-68
2021/05/23 07:37:40;;;;;;;1.38;0.68;;;17.00;99.90;;;;;;4933790;29;20123;-69
2021/05/23 07:40:08;;;;;;;1.67;0.60;;;17.10;99.90;;;;;;4933613;29;20284;-68
2021/05/23 07:42:36;;;;;;;2.22;0.60;;;16.70;99.90;;;;;;4942446;29;20035;-68
2021/05/23 07:45:03;;;;;;;2.22;0.63;;;16.80;99.90;;;;;;4951402;29;20059;-68
2021/05/23 07:47:29;;;;;;;2.08;0.32;;;17.50;99.90;;;;;;4952768;29;20036;-68
2021/05/23 07:49:56;;;;;;;1.52;0.70;;;18.10;99.40;;;;;;4952856;28;20085;-68
2021/05/23 07:52:23;;;;;;;5.45;2.40;;;17.70;98.50;;;;;;4952510;28;20089;-68
2021/05/23 07:54:49;;;;;;;2.65;1.50;;;17.90;98.60;;;;;;4952985;28;20537;-68
2021/05/23 07:57:16;;;;;;;;;;;17.80;97.30;;;;;;4948415;29;20074;-68
2021/05/23 07:59:43;;;;;;;3.10;0.80;;;17.40;97.10;;;;;;4946829;29;20391;-69
2021/05/23 08:02:10;;;;;;;2.13;0.93;;;17.40;96.60;;;;;;4939482;29;20048;-69
2021/05/23 08:04:37;;;;;;;3.00;0.85;;;16.40;98.10;;;;;;4945854;29;20062;-69
2021/05/23 08:07:03;;;;;;;;;;;17.20;98.50;;;;;;4952208;29;20043;-69
2021/05/23 08:09:30;;;;;;;3.53;0.90;;;17.40;97.80;;;;;;4938978;29;19923;-69
2021/05/23 08:11:57;;;;;;;1.67;0.63;;;18.20;96.40;;;;;;4940711;29;20466;-70
2021/05/23 08:14:24;;;;;;;1.35;0.68;;;17.70;95.50;;;;;;4945379;29;20503;-70
2021/05/23 08:16:51;;;;;;;2.92;0.73;;;16.90;96.70;;;;;;4937353;29;20053;-68
2021/05/23 08:19:19;;;;;;;3.70;0.70;;;17.20;95.50;;;;;;4933422;29;20456;-69
2021/05/23 08:21:47;;;;;;;2.25;0.60;;;16.40;96.80;;;;;;4951206;29;20050;-69
2021/05/23 08:24:13;;;;;;;3.80;0.82;;;15.70;98.20;;;;;;4952027;28;20407;-69
2021/05/23 08:26:41;;;;;;;0.93;0.63;;;16.60;97.30;;;;;;4952073;29;20511;-69
2021/05/23 08:29:07;;;;;;;1.73;0.70;;;17.30;95.40;;;;;;4951856;28;20405;-69
2021/05/23 08:31:34;;;;;;;2.40;1.13;;;18.50;93.20;;;;;;4947639;29;20377;-69
2021/05/23 08:34:02;;;;;;;1.45;0.70;;;18.80;92.10;;;;;;4943126;29;20135;-69
2021/05/23 08:36:29;;;;;;;4.28;0.95;;;18.60;91.70;;;;;;4949142;28;20051;-69
2021/05/23 08:38:55;;;;;;;1.25;0.88;;;18.50;91.60;;;;;;4938189;29;20480;-69
2021/05/23 08:41:22;;;;;;;2.80;0.70;;;18.70;90.80;;;;;;4952260;28;20050;-69
2021/05/23 08:43:51;;;;;;;1.60;0.60;;;19.30;90.70;;;;;;4950276;29;20055;-69
2021/05/23 08:46:18;;;;;;;3.13;0.90;;;19.40;90.40;;;;;;4952071;28;20050;-69
2021/05/23 08:48:46;;;;;;;1.17;0.60;;;19.90;87.70;;;;;;4951681;29;20502;-68
2021/05/23 08:51:13;;;;;;;3.67;0.80;;;19.10;89.70;;;;;;4949696;29;20430;-70
2021/05/23 08:53:41;;;;;;;1.27;0.65;;;19.70;89.20;;;;;;4950336;29;20410;-72
2021/05/23 08:56:07;;;;;;;;;;;19.30;87.40;;;;;;4950143;29;20055;-72
2021/05/23 08:58:34;;;;;;;3.55;1.10;;;19.50;87.40;;;;;;4951611;29;19962;-72
2021/05/23 09:01:00;;;;;;;1.60;0.98;;;19.10;87.20;;;;;;4951119;28;20130;-71
2021/05/23 09:03:27;;;;;;;2.05;0.82;;;19.00;89.90;;;;;;4950491;28;20081;-71
2021/05/23 09:05:56;;;;;;;;;;;18.00;90.10;;;;;;4951594;28;20122;-72
2021/05/23 09:08:26;;;;;;;2.03;0.90;;;17.80;91.30;;;;;;4946810;29;19947;-71
2021/05/23 09:10:55;;;;;;;1.30;0.73;;;18.10;90.90;;;;;;4951340;29;20043;-71
2021/05/23 09:13:30;;;;;;;2.55;0.93;;;18.00;90.60;;;;;;4938977;29;20046;-71
2021/05/23 09:16:01;;;;;;;1.98;0.93;;;18.70;90.10;;;;;;4951406;28;20138;-71
2021/05/23 09:18:40;;;;;;;0.90;0.50;;;19.90;87.00;;;;;;4949820;29;20061;-71
2021/05/23 09:21:07;;;;;;;2.67;0.80;;;19.70;84.80;;;;;;4940752;28;20588;-72
2021/05/23 09:23:47;;;;;;;2.65;1.42;;;20.10;83.30;;;;;;4949472;29;20118;-70
2021/05/23 09:26:16;;;;;;;2.63;0.70;;;20.00;83.00;;;;;;4957092;28;20463;-71
2021/05/23 09:28:43;;;;;;;3.85;0.80;;;19.60;84.80;;;;;;4970244;28;20051;-71
2021/05/23 09:31:14;;;;;;;1.95;0.68;;;19.40;81.70;;;;;;4970405;28;20298;-71
2021/05/23 09:33:46;;;;;;;1.27;0.50;;;20.10;82.30;;;;;;4960207;28;20059;-71
2021/05/23 09:36:13;;;;;;;2.10;1.15;;;20.30;79.70;;;;;;4949730;29;20063;-70
2021/05/23 09:38:58;;;;;;;2.35;1.02;;;19.30;81.50;;;;;;4951148;29;20055;-70
2021/05/23 09:41:27;;;;;;;2.88;0.90;;;18.60;83.40;;;;;;4950837;29;20094;-71
2021/05/23 09:44:09;;;;;;;3.58;0.85;;;18.70;84.70;;;;;;4939515;29;20118;-71
2021/05/23 09:46:36;;;;;;;2.83;0.70;;;18.60;83.40;;;;;;4949939;29;20051;-71
2021/05/23 09:49:03;;;;;;;4.32;1.00;;;18.80;82.20;;;;;;4944245;28;20428;-72
2021/05/23 09:51:30;;;;;;;3.22;0.98;;;18.20;86.00;;;;;;4944626;29;20051;-70
2021/05/23 09:54:00;;;;;;;3.63;1.88;;;17.80;86.90;;;;;;4955022;29;20111;-70
2021/05/23 09:56:32;;;;;;;3.50;1.25;;;17.40;88.80;;;;;;4954666;29;20530;-70
2021/05/23 09:58:59;;;;;;;1.75;0.80;;;17.10;90.10;;;;;;4953442;29;20051;-70
2021/05/23 10:01:30;;;;;;;2.30;0.80;;;16.60;91.50;;;;;;4947854;28;20047;-71
2021/05/23 10:03:58;;;;;;;2.15;0.80;;;16.60;91.90;;;;;;4943814;29;20847;-70
2021/05/23 10:06:28;;;;;;;1.48;0.52;;;17.80;90.70;;;;;;4943521;29;20050;-70
2021/05/23 10:08:56;;;;;;;2.20;0.47;;;18.90;89.90;;;;;;4956012;29;20050;-70
2021/05/23 10:11:24;;;;;;;2.47;0.77;;;18.70;85.60;;;;;;4954183;28;20053;-70
2021/05/23 10:13:51;;;;;;;2.80;0.73;;;18.10;87.60;;;;;;4954038;29;20047;-70
2021/05/23 10:16:18;;;;;;;3.53;0.88;;;17.70;87.60;;;;;;4952483;29;20076;-70
2021/05/23 10:18:46;;;;;;;3.08;1.08;;;17.30;88.90;;;;;;4953758;29;20039;-70
2021/05/23 10:21:14;;;;;;;1.80;0.70;;;16.90;91.80;;;;;;4953847;29;20047;-70
2021/05/23 10:23:47;;;;;;;3.55;0.93;;;16.10;91.60;;;;;;4952322;29;20051;-68
2021/05/23 10:26:15;;;;;;;2.17;0.70;;;15.90;91.40;;;;;;4954079;29;20450;-68
2021/05/23 10:28:45;;;;;;;2.95;0.63;;;15.80;92.80;;;;;;4953537;29;20043;-69
2021/05/23 10:31:12;;;;;;;2.50;0.70;;;15.80;93.40;;;;;;4952366;29;20507;-68
2021/05/23 10:33:49;;;;;;;5.07;0.90;;;15.40;95.30;;;;;;4953894;28;20054;-67
2021/05/23 10:36:30;;;;;;;0.90;0.73;;;15.20;96.10;;;;;;4954019;28;20046;-68
2021/05/23 10:38:57;;;;;;;3.70;1.02;;;15.70;94.60;;;;;;4953725;28;20086;-68
2021/05/23 10:41:24;;;;;;;1.95;1.38;;;16.00;94.60;;;;;;4954026;28;20050;-68
2021/05/23 10:43:59;;;;;;;2.92;1.02;;;16.40;94.60;;;;;;4953867;28;20055;-69
2021/05/23 10:46:27;;;;;;;1.60;0.68;;;16.60;93.90;;;;;;4953622;29;20135;-68
2021/05/23 10:48:55;;;;;;;3.33;1.00;;;16.60;93.60;;;;;;4953409;28;20118;-67
2021/05/23 10:51:23;;;;;;;1.27;0.60;;;16.70;93.40;;;;;;4953280;28;20051;-68
2021/05/23 10:53:50;;;;;;;1.50;0.73;;;17.00;92.30;;;;;;4953434;29;20043;-68
2021/05/23 10:56:23;;;;;;;2.80;0.95;;;16.80;93.50;;;;;;4953473;29;20825;-68
2021/05/23 10:58:59;;;;;;;3.53;1.02;;;16.90;92.00;;;;;;4952935;28;20050;-67
2021/05/23 11:01:40;;;;;;;6.43;2.73;;;16.70;92.50;;;;;;4953005;28;20043;-68
2021/05/23 11:04:12;;;;;;;4.30;2.33;;;16.50;92.60;;;;;;4951786;29;20145;-67
2021/05/23 11:06:40;;;;;;;2.50;1.25;;;16.30;92.70;;;;;;4953253;28;20134;-68
2021/05/23 11:09:09;;;;;;;5.38;2.53;;;16.00;93.40;;;;;;4951572;29;20043;-68
2021/05/23 11:11:36;;;;;;;1.85;1.27;;;15.90;96.40;;;;;;4951560;29;20043;-68
2021/05/23 11:14:18;;;;;;;1.67;0.70;;;15.90;98.10;;;;;;4953535;29;20118;-68
2021/05/23 11:16:52;;;;;;;6.38;1.13;;;15.90;99.10;;;;;;4954319;28;20122;-68
2021/05/23 11:19:21;;;;;;;6.95;4.25;;;16.10;98.80;;;;;;4952984;29;20392;-68
2021/05/23 11:21:49;;;;;;;4.05;2.00;;;16.20;97.60;;;;;;4952033;29;20606;-68
2021/05/23 11:24:16;;;;;;;8.00;3.72;;;16.30;97.90;;;;;;4952828;29;20488;-68
2021/05/23 11:26:44;;;;;;;14.23;7.93;;;16.30;97.60;;;;;;4933868;29;20075;-68
2021/05/23 11:29:12;;;;;;;4.45;1.75;;;16.30;96.40;;;;;;4941691;28;20039;-67
2021/05/23 11:31:41;;;;;;;2.17;1.27;;;16.60;96.70;;;;;;4946790;28;20062;-68
2021/05/23 11:34:08;;;;;;;5.53;1.80;;;16.70;97.00;;;;;;4950853;29;20073;-68
2021/05/23 11:36:39;;;;;;;5.03;1.60;;;17.00;96.40;;;;;;4952685;29;20039;-68
2021/05/23 11:39:08;;;;;;;4.95;2.20;;;16.90;95.20;;;;;;4948353;28;20455;-67
2021/05/23 11:41:37;;;;;;;4.82;1.80;;;16.80;96.50;;;;;;4939462;28;20047;-68
2021/05/23 11:44:06;;;;;;;3.30;1.40;;;16.60;96.70;;;;;;4952732;29;20043;-67
2021/05/23 11:46:35;;;;;;;1.95;1.10;;;16.50;97.50;;;;;;4950995;29;20063;-68
2021/05/23 11:49:02;;;;;;;4.03;1.70;;;16.40;97.20;;;;;;4952271;29;20059;-68
2021/05/23 11:51:31;;;;;;;3.22;0.95;;;16.90;97.50;;;;;;4952232;28;20098;-68
2021/05/23 11:54:00;;;;;;;2.75;1.20;;;17.40;96.50;;;;;;4953537;28;20106;-68
2021/05/23 11:56:30;;;;;;;2.90;1.10;;;17.90;96.40;;;;;;4947407;28;20047;-72
2021/05/23 11:58:58;;;;;;;3.47;1.45;;;18.60;95.70;;;;;;4950701;29;20050;-70
2021/05/23 12:01:27;;;;;;;2.60;0.98;;;18.40;94.90;;;;;;4950169;28;20048;-69
2021/05/23 12:04:00;;;;;;;3.05;0.90;;;18.00;95.40;;;;;;4952051;29;20507;-70
2021/05/23 12:06:28;;;;;;;3.40;1.52;;;17.30;95.30;;;;;;4948999;29;20141;-69
2021/05/23 12:09:09;;;;;;;1.85;1.30;;;17.10;97.50;;;;;;4933169;29;20043;-68
2021/05/23 12:11:38;;;;;;;2.88;1.35;;;16.90;96.70;;;;;;4939499;29;20081;-68
2021/05/23 12:14:04;;;;;;;3.65;1.20;;;16.90;97.00;;;;;;4952132;29;20058;-68
2021/05/23 12:16:31;;;;;;;1.45;0.95;;;16.80;98.00;;;;;;4951116;29;20050;-69
2021/05/23 12:18:58;;;;;;;;;;;17.00;98.00;;;;;;4951329;29;20051;-69
2021/05/23 12:21:29;;;;;;;3.33;0.73;;;17.60;96.90;;;;;;4951578;29;20449;-71
2021/05/23 12:23:57;;;;;;;2.85;0.82;;;17.70;96.60;;;;;;4952110;29;20054;-71
2021/05/23 12:26:25;;;;;;;1.10;0.60;;;18.50;95.40;;;;;;4951907;29;20050;-71
2021/05/23 12:28:53;;;;;;;3.80;0.88;;;18.90;94.60;;;;;;4949303;29;20507;-72
2021/05/23 12:31:21;;;;;;;3.55;0.52;;;19.10;93.20;;;;;;4950865;29;20043;-71
2021/05/23 12:33:50;;;;;;;2.90;0.75;;;18.50;94.00;;;;;;4951700;29;20066;-72
2021/05/23 12:36:19;;;;;;;1.65;0.70;;;18.60;96.60;;;;;;4946013;29;20050;-69
2021/05/23 12:38:57;;;;;;;1.30;0.70;;;18.40;95.70;;;;;;4951599;29;20055;-69
2021/05/23 12:41:35;;;;;;;3.55;0.90;;;17.80;98.10;;;;;;4951960;28;20131;-70
2021/05/23 12:44:01;;;;;;;7.13;1.65;;;17.00;99.90;;;;;;4951537;29;20047;-68
2021/05/23 12:46:28;;;;;;;;;;;16.70;99.90;;;;;;4943987;29;20047;-69
2021/05/23 12:48:55;;;;;;;6.43;1.13;;;16.90;99.90;;;;;;4942733;29;19934;-69
2021/05/23 12:51:24;;;;;;;1.85;0.50;;;16.80;99.90;;;;;;4937898;29;20039;-69
2021/05/23 12:53:53;;;;;;;3.10;0.60;;;17.50;99.90;;;;;;4947735;29;20070;-69
2021/05/23 12:56:22;;;;;;;5.15;1.15;;;18.50;99.90;;;;;;4947213;29;20047;-70
2021/05/23 12:58:51;;;;;;;2.25;0.73;;;19.80;99.20;;;;;;4947479;29;20051;-68
2021/05/23 13:01:20;;;;;;;1.63;0.60;;;19.10;96.70;;;;;;4948386;28;20047;-69
2021/05/23 13:03:52;;;;;;;1.27;0.70;;;18.60;95.90;;;;;;4939282;29;20043;-68
2021/05/23 13:06:20;;;;;;;2.47;0.82;;;18.10;95.80;;;;;;4945474;29;20523;-68
2021/05/23 13:08:55;;;;;;;2.60;0.50;;;17.80;95.70;;;;;;4944269;28;20071;-69
2021/05/23 13:11:22;;;;;;;1.70;0.60;;;18.30;96.10;;;;;;4947908;28;20051;-68
2021/05/23 13:13:49;;;;;;;1.85;0.60;;;19.40;94.00;;;;;;4950439;29;20039;-68
2021/05/23 13:16:16;;;;;;;3.80;1.45;;;20.20;88.70;;;;;;4951279;29;20155;-68
2021/05/23 13:18:44;;;;;;;2.45;1.00;;;20.40;88.60;;;;;;4949924;29;20051;-69
2021/05/23 13:21:13;;;;;;;2.63;0.60;;;20.90;88.50;;;;;;4950048;28;20411;-68
2021/05/23 13:23:41;;;;;;;1.33;0.65;;;20.40;85.20;;;;;;4951823;28;20499;-68
2021/05/23 13:26:14;;;;;;;2.28;0.70;;;20.40;86.80;;;;;;4953342;29;20499;-69
2021/05/23 13:28:41;;;;;;;1.30;0.50;;;20.50;85.60;;;;;;4953007;28;20047;-68
2021/05/23 13:31:08;;;;;;;2.35;0.63;;;19.90;83.70;;;;;;4953961;28;20624;-69
2021/05/23 13:33:35;;;;;;;1.67;0.80;;;19.70;84.90;;;;;;4953680;29;20462;-68
2021/05/23 13:36:05;;;;;;;;;;;19.60;85.40;;;;;;4956016;28;20062;-67
2021/05/23 13:38:31;;;;;;;2.30;0.68;;;19.10;89.70;;;;;;4953295;28;19923;-69
2021/05/23 13:40:58;;;;;;;;;;;18.40;87.00;;;;;;4954942;28;20134;-67
2021/05/23 13:43:27;;;;;;;0.85;0.60;;;17.60;89.80;;;;;;4952946;29;19922;-68
2021/05/23 13:45:54;;;;;;;1.95;0.68;;;17.60;90.20;;;;;;4954519;28;20048;-67
2021/05/23 13:48:21;;;;;;;1.17;0.43;;;17.40;91.00;;;;;;4954363;28;20501;-68
2021/05/23 13:50:49;;;;;;;0.70;0.32;;;17.20;91.00;;;;;;4954274;28;20126;-67
2021/05/23 13:53:16;;;;;;;2.10;0.82;;;17.40;90.90;;;;;;4953548;28;20075;-68
2021/05/23 13:55:43;;;;;;;5.15;0.90;;;17.40;91.20;;;;;;4952463;28;20082;-68
2021/05/23 13:58:10;;;;;;;0.98;0.60;;;17.80;91.10;;;;;;4952075;29;20466;-69
2021/05/23 14:00:38;;;;;;;7.25;3.08;;;17.70;91.40;;;;;;4952861;28;20500;-68
2021/05/23 14:03:15;;;;;;;9.13;3.60;;;17.80;90.90;;;;;;4953383;29;20407;-68
2021/05/23 14:05:43;;;;;;;4.00;1.90;;;17.80;90.10;;;;;;4956738;29;20047;-69
2021/05/23 14:08:11;;;;;;;2.53;1.98;;;17.70;90.10;;;;;;4945216;29;20503;-69
2021/05/23 14:10:37;;;;;;;3.42;1.33;;;17.60;90.30;;;;;;4952893;28;20154;-67
2021/05/23 14:13:05;;;;;;;4.18;2.80;;;17.50;91.10;;;;;;4954528;29;20049;-69
2021/05/23 14:15:33;;;;;;;1.17;1.08;;;17.30;91.90;;;;;;4955269;28;20499;-69
2021/05/23 14:18:00;;;;;;;4.13;1.92;;;17.00;91.40;;;;;;4952027;28;20051;-69
2021/05/23 14:20:28;;;;;;;5.30;2.92;;;16.80;91.90;;;;;;4947015;29;20047;-67
2021/05/23 14:22:55;;;;;;;3.55;1.38;;;16.90;92.40;;;;;;4956273;29;20052;-68
2021/05/23 14:25:22;;;;;;;2.05;0.95;;;17.00;92.80;;;;;;4967266;29;20086;-67
2021/05/23 14:27:49;;;;;;;1.83;0.70;;;17.00;92.30;;;;;;4965479;28;20097;-67
2021/05/23 14:30:18;;;;;;;2.70;0.63;;;17.20;92.00;;;;;;4958802;28;20043;-67
2021/05/23 14:32:46;;;;;;;1.45;0.80;;;17.50;91.60;;;;;;4972025;29;20221;-67
2021/05/23 14:35:16;;;;;;;1.35;0.88;;;17.80;91.30;;;;;;4966981;28;20082;-67
2021/05/23 14:37:44;;;;;;;1.73;0.77;;;18.40;89.80;;;;;;4955945;28;20483;-68
2021/05/23 14:40:13;;;;;;;2.75;0.73;;;18.80;86.00;;;;;;4955782;28;20054;-69
2021/05/23 14:42:40;;;;;;;1.63;0.52;;;18.90;87.90;;;;;;4953085;29;20047;-69
2021/05/23 14:45:09;;;;;;;3.20;0.88;;;18.20;89.10;;;;;;4954684;28;20704;-69
2021/05/23 14:47:36;;;;;;;2.20;0.68;;;17.90;88.70;;;;;;4951739;28;20058;-70
2021/05/23 14:50:03;;;;;;;2.22;0.80;;;18.10;89.70;;;;;;4953166;28;20043;-69
2021/05/23 14:52:31;;;;;;;2.50;0.63;;;18.30;89.60;;;;;;4953367;28;20035;-69
2021/05/23 14:54:58;;;;;;;3.17;0.55;;;18.20;88.60;;;;;;4947763;29;20059;-70
2021/05/23 14:57:25;;;;;;;3.13;0.70;;;18.00;86.40;;;;;;4950886;29;20538;-69
2021/05/23 14:59:52;;;;;;;2.85;0.90;;;17.90;86.00;;;;;;4953580;28;20408;-69
2021/05/23 15:02:19;;;;;;;3.42;0.90;;;18.00;86.10;;;;;;4953211;28;20139;-69
2021/05/23 15:04:46;;;;;;;2.22;0.90;;;18.20;85.80;;;;;;4949843;29;20149;-70
2021/05/23 15:07:12;;;;;;;2.75;1.00;;;18.10;87.20;;;;;;4953007;28;20133;-68
2021/05/23 15:09:43;;;;;;;;;;;17.80;87.80;;;;;;4953014;28;20111;-69
2021/05/23 15:12:10;;;;;;;2.50;0.70;;;17.30;87.90;;;;;;4951425;29;20045;-70
2021/05/23 15:14:37;;;;;;;;;;;17.30;89.50;;;;;;4953443;28;20074;-68
2021/05/23 15:17:04;;;;;;;2.20;0.73;;;17.40;90.00;;;;;;4952304;29;20246;-68
2021/05/23 15:19:30;;;;;;;2.03;0.63;;;17.50;89.30;;;;;;4951686;28;20043;-68
2021/05/23 15:21:57;;;;;;;2.88;0.80;;;17.60;89.60;;;;;;4951908;29;20408;-67
2021/05/23 15:24:24;;;;;;;0.85;0.63;;;17.70;88.70;;;;;;4950698;28;20255;-67
2021/05/23 15:26:59;;;;;;;2.15;1.17;;;17.70;88.90;;;;;;4952048;29;20099;-68
2021/05/23 15:32:11;;;;;;;2.80;0.85;;;17.90;87.20;;;;;;4952001;29;20399;-68
2021/05/23 15:34:39;;;;;;;2.85;1.10;;;18.00;85.60;;;;;;4952527;28;20047;-68
2021/05/23 15:37:06;;;;;;;4.20;0.82;;;18.30;85.30;;;;;;4946065;28;20075;-69
2021/05/23 15:39:33;;;;;;;2.75;0.63;;;18.40;84.90;;;;;;4933326;29;20425;-68
2021/05/23 15:42:01;;;;;;;1.55;0.50;;;18.20;83.70;;;;;;4932910;29;20048;-68
2021/05/23 15:44:28;;;;;;;2.03;0.70;;;18.30;82.10;;;;;;4931999;29;20048;-68
2021/05/23 15:46:55;;;;;;;1.30;0.60;;;18.20;82.10;;;;;;4933017;29;20043;-68
2021/05/23 15:49:23;;;;;;;2.53;0.80;;;18.30;83.20;;;;;;4950170;29;20050;-68
2021/05/23 15:51:50;;;;;;;2.72;0.90;;;18.40;84.10;;;;;;4952306;28;20098;-68
2021/05/23 15:54:17;;;;;;;;;;;18.20;82.90;;;;;;4950159;29;20044;-68
2021/05/23 15:56:44;;;;;;;1.92;0.90;;;18.20;80.60;;;;;;4952280;28;19939;-68
2021/05/23 15:59:12;;;;;;;2.85;0.55;;;18.20;77.00;;;;;;4951286;29;20053;-68
2021/05/23 16:01:38;;;;;;;2.55;0.68;;;17.90;78.10;;;;;;4952517;28;20114;-69
2021/05/23 16:04:05;;;;;;;;;;;17.80;78.90;;;;;;4950942;29;20263;-69
2021/05/23 16:06:33;;;;;;;2.38;0.75;;;17.50;80.80;;;;;;4951345;28;19949;-69
2021/05/23 16:09:01;;;;;;;1.75;0.73;;;17.40;81.10;;;;;;4950817;29;20046;-69
2021/05/23 16:11:30;;;;;;;3.63;1.40;;;17.40;82.70;;;;;;4952114;28;20050;-69
2021/05/23 16:13:58;;;;;;;2.67;0.98;;;17.50;81.50;;;;;;4948569;28;20141;-68
2021/05/23 16:16:28;;;;;;;1.95;0.65;;;17.70;81.10;;;;;;4951427;28;20086;-68
2021/05/23 16:18:56;;;;;;;2.45;0.90;;;17.70;81.10;;;;;;4951054;29;20043;-67
2021/05/23 16:21:24;;;;;;;2.60;1.00;;;17.70;81.90;;;;;;4951108;28;20054;-69
2021/05/23 16:23:50;;;;;;;2.60;0.93;;;17.50;80.40;;;;;;4948597;28;20146;-68
2021/05/23 16:26:18;;;;;;;3.03;1.00;;;17.50;81.70;;;;;;4950458;29;20051;-69
2021/05/23 16:28:45;;;;;;;2.58;1.27;;;17.50;81.90;;;;;;4949934;29;20543;-69
2021/05/23 16:31:13;;;;;;;2.10;0.90;;;17.60;82.60;;;;;;4951018;29;20518;-69
2021/05/23 16:33:41;;;;;;;3.10;0.63;;;17.50;83.00;;;;;;4951563;28;20105;-70
2021/05/23 16:36:10;;;;;;;1.73;0.55;;;17.30;84.60;;;;;;4950490;29;20051;-69
2021/05/23 16:38:39;;;;;;;3.95;0.90;;;17.10;85.30;;;;;;4950840;29;20081;-69
2021/05/23 16:41:07;;;;;;;1.27;0.70;;;17.00;86.00;;;;;;4951412;29;20411;-67
2021/05/23 16:43:34;;;;;;;3.97;1.30;;;17.00;86.00;;;;;;4948947;29;20063;-69
2021/05/23 16:46:01;;;;;;;1.60;0.52;;;17.00;86.30;;;;;;4951567;29;20043;-69
2021/05/23 16:48:27;;;;;;;;;;;17.10;87.10;;;;;;4950606;29;20078;-68
2021/05/23 16:50:55;;;;;;;1.80;0.90;;;17.00;86.90;;;;;;4948462;28;20422;-68
2021/05/23 16:53:23;;;;;;;2.63;0.75;;;17.00;86.70;;;;;;4950575;29;20055;-68
2021/05/23 16:55:50;;;;;;;3.13;1.20;;;17.00;87.40;;;;;;4949905;28;20051;-67
2021/05/23 16:58:17;;;;;;;2.35;0.77;;;17.00;87.70;;;;;;4948098;28;20054;-69
2021/05/23 17:00:45;;;;;;;1.45;0.80;;;16.90;88.70;;;;;;4949020;29;20102;-69
2021/05/23 17:03:12;;;;;;;2.25;0.77;;;17.00;88.40;;;;;;4951891;28;20039;-68
2021/05/23 17:05:39;;;;;;;3.03;0.85;;;16.90;88.80;;;;;;4935183;29;20058;-68
2021/05/23 17:08:07;;;;;;;4.55;1.20;;;16.90;89.00;;;;;;4930913;29;20082;-68
2021/05/23 17:10:34;;;;;;;1.73;0.90;;;16.60;91.20;;;;;;4943577;29;20137;-68
2021/05/23 17:13:00;;;;;;;;;;;16.50;91.00;;;;;;4951017;28;20074;-67
2021/05/23 17:15:27;;;;;;;2.22;0.88;;;16.50;91.80;;;;;;4949733;28;19926;-67
2021/05/23 17:17:56;;;;;;;4.25;1.67;;;16.40;91.30;;;;;;4952678;29;20125;-67
2021/05/23 17:20:23;;;;;;;5.25;1.73;;;16.50;91.50;;;;;;4952248;29;20054;-68
2021/05/23 17:22:50;;;;;;;;;;;16.50;91.60;;;;;;4950879;28;20050;-68
2021/05/23 17:25:20;;;;;;;3.50;0.77;;;16.60;91.60;;;;;;4950030;28;20017;-69
2021/05/23 17:27:48;;;;;;;3.05;0.63;;;16.50;91.40;;;;;;4950843;29;20307;-69
2021/05/23 17:30:18;;;;;;;1.83;0.63;;;16.40;91.60;;;;;;4951235;28;20139;-67
2021/05/23 17:32:46;;;;;;;2.13;0.70;;;16.20;91.20;;;;;;4943907;29;20079;-67
2021/05/23 17:35:14;;;;;;;1.65;0.60;;;16.30;91.60;;;;;;4930684;29;20051;-68
2021/05/23 17:37:42;;;;;;;1.75;0.60;;;16.10;91.80;;;;;;4949060;29;20098;-67
2021/05/23 17:40:10;;;;;;;2.65;0.60;;;16.20;92.40;;;;;;4948849;29;20166;-67
2021/05/23 17:42:39;;;;;;;0.90;0.65;;;16.20;92.40;;;;;;4950735;28;20134;-68
2021/05/23 17:45:07;;;;;;;3.20;1.40;;;16.10;92.70;;;;;;4951945;29;20051;-67
2021/05/23 17:47:34;;;;;;;1.83;0.60;;;16.10;92.90;;;;;;4951081;28;20066;-67
2021/05/23 17:50:00;;;;;;;3.30;0.90;;;16.00;92.80;;;;;;4951232;29;20134;-68